Time;durP1;ratioP1;P1;durP2;ratioP2;P2;SDS_P1;SDS_P2;PMS_P1;PMS_P2;Temp;Humidity;BMP_temperature;BMP_pressure;BME280_temperature;BME280_humidity;BME280_pressure;Samples;Min_cycle;Max_cycle;Signal;HPM_P1;HPM_P2
2021/12/15 00:01:04;;;;;;;37.63;19.00;;;5.10;99.90;;;3.74;100.00;99307.41;5089587;28;20476;-69
2021/12/15 00:03:32;;;;;;;35.47;18.30;;;5.20;99.90;;;3.71;100.00;99318.34;5093186;28;20967;-69
2021/12/15 00:06:03;;;;;;;35.93;18.40;;;5.20;99.90;;;3.59;100.00;99310.47;5090352;28;20474;-70
2021/12/15 00:08:30;;;;;;;33.57;17.03;;;5.10;99.90;;;3.72;100.00;99299.50;5089683;28;20997;-69
2021/12/15 00:10:57;;;;;;;36.10;18.53;;;5.10;99.90;;;3.66;100.00;99316.94;5092228;28;20471;-70
2021/12/15 00:13:24;;;;;;;36.07;19.00;;;5.10;99.90;;;3.62;100.00;99301.31;5086061;28;20456;-70
2021/12/15 00:15:52;;;;;;;33.23;18.30;;;5.10;99.90;;;3.57;100.00;99309.78;5090206;28;20466;-69
2021/12/15 00:18:19;;;;;;;40.87;19.00;;;5.10;99.90;;;3.69;100.00;99300.63;5088277;28;20452;-69
2021/12/15 00:20:46;;;;;;;33.97;17.97;;;5.10;99.90;;;3.64;100.00;99286.84;5090747;28;20474;-69
2021/12/15 00:23:15;;;;;;;29.80;16.30;;;5.10;99.90;;;3.65;100.00;99288.53;5088805;28;20967;-69
2021/12/15 00:25:44;;;;;;;30.23;17.80;;;5.00;99.90;;;3.67;100.00;99301.75;5082504;28;20903;-68
2021/12/15 00:28:13;;;;;;;30.83;16.57;;;5.10;99.90;;;3.54;100.00;99296.66;5083928;28;20463;-69
2021/12/15 00:30:40;;;;;;;37.27;17.20;;;5.10;99.90;;;3.43;100.00;99297.63;5080727;28;20484;-69
2021/12/15 00:33:09;;;;;;;38.10;18.40;;;5.00;99.90;;;3.49;100.00;99298.91;5088414;28;21053;-69
2021/12/15 00:35:36;;;;;;;43.60;18.40;;;5.00;99.90;;;3.58;100.00;99306.13;5084741;28;20460;-69
2021/12/15 00:38:04;;;;;;;37.50;17.00;;;5.00;99.90;;;3.56;100.00;99297.38;5083503;28;20475;-69
2021/12/15 00:40:34;;;;;;;38.03;16.57;;;5.00;99.90;;;3.68;100.00;99293.59;5086964;28;20557;-69
2021/12/15 00:43:02;;;;;;;32.33;16.57;;;5.10;99.90;;;3.61;100.00;99292.47;5085435;28;20865;-69
2021/12/15 00:45:30;;;;;;;33.23;17.23;;;5.10;99.90;;;3.69;100.00;99294.44;5078193;28;20816;-69
2021/12/15 00:47:58;;;;;;;38.60;17.67;;;5.10;99.90;;;3.62;100.00;99283.47;5096892;28;20467;-68
2021/12/15 00:50:32;;;;;;;32.40;17.83;;;5.10;99.90;;;3.58;100.00;99298.09;5095748;28;20451;-69
2021/12/15 00:53:00;;;;;;;40.17;18.40;;;5.00;99.90;;;3.78;100.00;99298.09;5086043;28;20436;-68
2021/12/15 00:55:29;;;;;;;39.90;18.53;;;5.10;99.90;;;3.17;100.00;99217.19;5091148;28;20459;-68
2021/12/15 00:57:59;;;;;;;34.50;16.70;;;5.10;99.90;;;3.62;100.00;99295.97;5083631;28;20468;-69
2021/12/15 01:00:31;;;;;;;42.67;19.00;;;5.10;99.90;;;3.74;100.00;99291.34;5089859;28;20951;-68
2021/12/15 01:03:00;;;;;;;32.10;17.10;;;5.10;99.90;;;3.96;100.00;99293.72;5082945;28;20468;-68
2021/12/15 01:05:34;;;;;;;32.53;16.90;;;5.20;99.90;;;3.85;100.00;99288.53;5088985;28;20468;-68
2021/12/15 01:08:05;;;;;;;38.53;18.37;;;5.20;99.90;;;3.64;100.00;99292.19;5087360;28;20629;-69
2021/12/15 01:10:45;;;;;;;41.43;20.30;;;5.10;99.90;;;3.60;100.00;99289.91;5085100;28;20510;-69
2021/12/15 01:21:29;;;;;;;38.20;19.27;;;5.30;99.90;;;3.73;100.00;99289.66;5089359;28;20483;-69
2021/12/15 01:23:56;;;;;;;38.70;17.30;;;5.20;99.90;;;3.76;100.00;99290.22;5082449;28;20672;-70
2021/12/15 01:26:24;;;;;;;36.67;17.20;;;5.20;99.90;;;3.81;100.00;99289.78;5093109;28;20452;-69
2021/12/15 01:28:52;;;;;;;31.47;18.00;;;5.20;99.90;;;3.77;100.00;99286.56;5105734;28;20444;-70
2021/12/15 01:31:19;;;;;;;37.50;18.93;;;5.20;99.90;;;3.86;100.00;99292.88;5094094;28;20451;-70
2021/12/15 01:33:47;;;;;;;41.73;18.27;;;5.20;99.90;;;3.85;100.00;99296.53;5095480;28;20463;-70
2021/12/15 01:36:14;;;;;;;31.30;17.67;;;5.20;99.90;;;3.96;100.00;99296.41;5089682;28;20933;-70
2021/12/15 01:38:46;;;;;;;37.50;18.90;;;5.30;99.90;;;3.91;100.00;99300.50;5090466;28;20464;-69
2021/12/15 01:41:21;;;;;;;31.90;16.90;;;5.30;99.90;;;3.84;100.00;99300.19;5092844;28;20472;-69
2021/12/15 01:46:55;;;;;;;37.33;17.10;;;5.30;99.90;;;3.90;100.00;99305.00;5086585;28;20456;-69
2021/12/15 01:49:30;;;;;;;33.67;18.30;;;5.30;99.90;;;4.02;100.00;99310.19;5088354;28;20459;-68
2021/12/15 01:52:02;;;;;;;37.80;18.47;;;5.30;99.90;;;3.87;100.00;99302.63;5091592;28;20471;-69
2021/12/15 01:54:31;;;;;;;35.90;17.50;;;5.40;99.90;;;3.83;100.00;99312.75;5088448;28;20462;-69
2021/12/15 01:56:59;;;;;;;35.80;17.63;;;5.20;99.90;;;3.97;100.00;99307.97;5086693;28;20498;-69
2021/12/15 01:59:31;;;;;;;34.67;18.70;;;5.30;99.90;;;3.91;100.00;99306.69;5088259;28;21050;-69
2021/12/15 02:01:59;;;;;;;43.03;19.50;;;5.30;99.90;;;3.89;100.00;99307.81;5083147;28;20476;-69
2021/12/15 02:04:26;;;;;;;33.30;18.17;;;5.40;99.90;;;3.84;100.00;99313.56;5091410;28;20517;-68
2021/12/15 02:06:54;;;;;;;38.07;18.80;;;5.30;99.90;;;3.89;100.00;99308.66;5085830;28;21036;-69
2021/12/15 02:09:44;;;;;;;38.50;19.77;;;5.30;99.90;;;3.82;100.00;99313.72;5092082;28;20456;-70
2021/12/15 02:12:15;;;;;;;39.83;20.90;;;5.30;99.90;;;3.73;100.00;99311.06;5088850;28;20498;-68
2021/12/15 02:14:43;;;;;;;43.37;18.80;;;5.20;99.90;;;3.85;100.00;99307.25;5091901;28;20443;-70
2021/12/15 02:17:10;;;;;;;40.57;19.30;;;5.20;99.90;;;3.94;100.00;99302.88;5082435;28;20448;-69
2021/12/15 02:19:38;;;;;;;41.17;18.67;;;5.30;99.90;;;3.88;100.00;99282.91;5089148;28;20459;-69
2021/12/15 02:22:07;;;;;;;46.30;19.83;;;5.30;99.90;;;3.96;100.00;99301.75;5087236;28;20472;-69
2021/12/15 02:24:36;;;;;;;45.23;20.43;;;5.30;99.90;;;4.11;100.00;99309.34;5091466;28;20460;-69
2021/12/15 02:27:06;;;;;;;46.70;21.00;;;5.40;99.90;;;3.90;100.00;99298.81;5085223;28;20580;-69
2021/12/15 02:29:39;;;;;;;46.83;21.70;;;5.30;99.90;;;3.88;100.00;99303.44;5087462;28;20537;-69
2021/12/15 02:32:16;;;;;;;49.80;21.97;;;5.30;99.90;;;3.92;100.00;99302.16;5092717;28;20539;-69
2021/12/15 02:37:41;;;;;;;46.43;21.20;;;5.30;99.90;;;4.00;100.00;99302.31;5088866;28;20464;-69
2021/12/15 02:40:13;;;;;;;42.27;20.03;;;5.40;99.90;;;4.15;100.00;99300.03;5088533;28;20586;-69
2021/12/15 02:42:46;;;;;;;55.30;22.80;;;5.50;99.90;;;4.10;100.00;99299.63;5094557;28;20468;-69
2021/12/15 02:45:18;;;;;;;60.87;22.27;;;5.50;99.90;;;3.98;100.00;99301.63;5090164;28;20464;-70
2021/12/15 02:47:46;;;;;;;44.10;20.57;;;5.40;99.90;;;3.99;100.00;99300.63;5087884;28;20452;-70
2021/12/15 02:50:21;;;;;;;57.50;23.80;;;5.40;99.90;;;4.05;100.00;99299.22;5089824;28;21014;-69
2021/12/15 02:52:50;;;;;;;58.43;22.50;;;5.40;99.90;;;3.95;100.00;99302.75;5089272;28;20459;-69
2021/12/15 02:55:18;;;;;;;55.83;23.17;;;5.40;99.90;;;3.99;100.00;99307.81;5089989;28;20452;-69
2021/12/15 02:57:47;;;;;;;62.30;24.30;;;5.40;99.90;;;4.01;100.00;99303.16;5085958;28;20452;-69
2021/12/15 03:00:19;;;;;;;70.20;26.20;;;5.40;99.90;;;4.09;100.00;99305.97;5086900;28;20467;-69
2021/12/15 03:05:43;;;;;;;55.20;23.73;;;5.40;99.90;;;4.06;100.00;99301.75;5078463;28;20496;-70
2021/12/15 03:08:17;;;;;;;60.83;25.93;;;5.40;99.90;;;4.04;100.00;99292.19;5089322;28;20543;-70
2021/12/15 03:16:18;;;;;;;57.10;25.27;;;5.50;99.90;;;4.15;100.00;99321.44;5084713;28;20543;-70
2021/12/15 03:18:47;;;;;;;61.63;23.53;;;5.50;99.90;;;4.28;100.00;99315.81;5089391;28;20467;-69
2021/12/15 03:21:18;;;;;;;59.17;26.10;;;5.60;99.90;;;4.21;100.00;99314.69;5082381;28;20460;-69
2021/12/15 03:23:53;;;;;;;54.73;22.43;;;5.60;99.90;;;4.01;100.00;99295.13;5090813;28;20468;-69
2021/12/15 03:26:26;;;;;;;67.80;27.00;;;5.50;99.90;;;3.97;100.00;99311.47;5094891;28;20448;-70
2021/12/15 03:34:43;;;;;;;66.33;25.27;;;5.50;99.90;;;4.27;100.00;99318.63;5093105;28;20461;-70
2021/12/15 03:37:23;;;;;;;63.73;24.47;;;5.60;99.90;;;4.31;100.00;99318.22;5094202;28;20490;-70
2021/12/15 03:39:55;;;;;;;68.30;25.33;;;5.60;99.90;;;4.23;100.00;99316.25;5104079;28;20448;-70
2021/12/15 03:42:29;;;;;;;72.20;25.70;;;5.60;99.90;;;4.10;100.00;99310.34;5092105;28;20502;-70
2021/12/15 03:44:58;;;;;;;63.33;25.60;;;5.50;99.90;;;4.20;100.00;99321.03;5092693;28;20460;-69
2021/12/15 03:47:29;;;;;;;70.63;26.97;;;5.60;99.90;;;4.10;100.00;99329.06;5087703;28;20468;-70
2021/12/15 03:49:58;;;;;;;68.47;24.70;;;5.50;99.90;;;4.15;100.00;99332.16;5089170;28;20444;-70
2021/12/15 03:52:27;;;;;;;70.23;26.93;;;5.60;99.90;;;4.28;100.00;99328.34;5096907;28;20444;-70
2021/12/15 03:54:56;;;;;;;65.67;26.80;;;5.60;99.90;;;4.41;100.00;99336.91;5084051;28;20464;-69
2021/12/15 03:57:23;;;;;;;58.67;23.83;;;5.70;99.90;;;4.29;100.00;99330.88;5090876;28;20468;-69
2021/12/15 03:59:50;;;;;;;60.63;25.60;;;5.70;99.90;;;4.28;100.00;99331.88;5088466;28;20931;-69
2021/12/15 04:02:21;;;;;;;60.93;24.00;;;5.60;99.90;;;4.41;100.00;99323.53;5090404;28;20467;-69
2021/12/15 04:04:49;;;;;;;68.63;25.07;;;5.70;99.90;;;4.59;100.00;99328.16;5088219;28;20459;-70
2021/12/15 04:07:19;;;;;;;74.67;25.97;;;5.80;99.90;;;4.27;100.00;99323.97;5092915;28;20574;-70
2021/12/15 04:09:47;;;;;;;66.17;27.67;;;5.70;99.90;;;4.32;100.00;99327.06;5085958;28;21012;-70
2021/12/15 04:12:16;;;;;;;67.70;26.30;;;5.60;99.90;;;4.27;100.00;99330.19;5089299;28;20460;-69
2021/12/15 04:14:46;;;;;;;68.53;26.60;;;5.60;99.90;;;4.30;100.00;99331.72;5086946;28;20464;-70
2021/12/15 04:17:29;;;;;;;73.97;27.43;;;5.60;99.90;;;4.31;100.00;99328.06;5087256;28;20966;-69
2021/12/15 04:20:02;;;;;;;68.90;27.10;;;5.70;99.90;;;4.21;100.00;99331.59;5086496;28;20563;-69
2021/12/15 04:22:29;;;;;;;72.90;28.43;;;5.60;99.90;;;4.14;100.00;99329.63;5089769;28;20478;-70
2021/12/15 04:24:59;;;;;;;71.67;28.83;;;5.60;99.90;;;4.23;100.00;99332.28;5088285;28;20544;-69
2021/12/15 04:27:29;;;;;;;65.67;26.33;;;5.60;99.90;;;4.27;100.00;99337.34;5088427;28;20471;-70
2021/12/15 04:29:56;;;;;;;73.30;28.03;;;5.60;99.90;;;4.31;100.00;99328.06;5088390;28;20448;-69
2021/12/15 04:32:33;;;;;;;64.47;26.63;;;5.70;99.90;;;4.53;100.00;99341.13;5089867;28;20461;-69
2021/12/15 04:35:00;;;;;;;66.83;27.10;;;5.80;99.90;;;4.42;100.00;99343.97;5085891;28;20448;-69
2021/12/15 04:37:27;;;;;;;71.07;27.50;;;5.80;99.90;;;4.33;100.00;99339.47;5086776;28;20488;-69
2021/12/15 04:39:55;;;;;;;77.80;28.57;;;5.70;99.90;;;4.44;100.00;99352.69;5085822;28;20586;-70
2021/12/15 04:42:24;;;;;;;66.17;28.03;;;5.80;99.90;;;4.31;100.00;99349.44;5087184;28;20484;-70
2021/12/15 04:44:56;;;;;;;68.90;28.00;;;5.80;99.90;;;4.33;100.00;99355.53;5069750;28;20464;-69
2021/12/15 04:47:25;;;;;;;57.83;25.67;;;5.70;99.90;;;4.44;100.00;99350.00;5085325;28;20464;-70
2021/12/15 04:49:56;;;;;;;63.17;27.73;;;5.80;99.90;;;4.48;100.00;99364.81;5087400;28;20448;-70
2021/12/15 04:52:27;;;;;;;67.07;26.63;;;5.70;99.90;;;4.42;100.00;99356.50;5079828;28;20448;-70
2021/12/15 04:54:56;;;;;;;65.93;26.80;;;5.80;99.90;;;4.48;100.00;99359.47;5086091;28;20471;-70
2021/12/15 04:57:24;;;;;;;63.83;26.10;;;5.80;99.90;;;4.48;100.00;99362.13;5086766;28;21131;-69
2021/12/15 04:59:54;;;;;;;57.90;24.13;;;5.80;99.90;;;4.33;100.00;99366.25;5085317;28;20480;-68
2021/12/15 05:02:23;;;;;;;57.73;25.23;;;5.70;99.90;;;4.41;100.00;99369.03;5086429;28;20498;-69
2021/12/15 05:04:52;;;;;;;65.23;25.40;;;5.80;99.90;;;4.46;100.00;99376.63;5089392;28;20460;-69
2021/12/15 05:07:21;;;;;;;57.70;24.47;;;5.80;99.90;;;4.37;100.00;99383.69;5087732;28;21014;-68
2021/12/15 05:09:50;;;;;;;54.17;22.87;;;5.80;99.90;;;4.52;100.00;99374.25;5088473;28;20460;-69
2021/12/15 05:12:18;;;;;;;48.80;23.10;;;5.80;99.90;;;4.61;99.66;99388.59;5089634;28;20455;-69
2021/12/15 05:14:45;;;;;;;52.67;23.40;;;5.90;99.90;;;4.72;99.26;99386.75;5089504;28;20796;-69
2021/12/15 05:17:14;;;;;;;55.70;25.10;;;5.90;99.90;;;4.72;99.45;99379.56;5085129;28;20447;-69
2021/12/15 05:19:43;;;;;;;52.40;23.83;;;6.00;99.90;;;4.57;99.69;99389.00;5087158;28;20464;-68
2021/12/15 05:22:13;;;;;;;47.73;23.93;;;5.90;99.90;;;4.30;100.00;99385.22;5086519;28;20476;-69
2021/12/15 05:24:40;;;;;;;55.97;23.80;;;5.80;99.90;;;4.80;100.00;99382.38;5084725;28;20470;-69
2021/12/15 05:27:12;;;;;;;64.47;25.77;;;5.90;99.90;;;4.66;99.82;99391.69;5088505;28;20452;-70
2021/12/15 05:29:40;;;;;;;47.37;22.20;;;6.00;99.90;;;5.01;98.88;99396.56;5086559;28;20463;-69
2021/12/15 05:32:09;;;;;;;53.37;26.53;;;6.30;99.90;;;4.54;99.12;99390.13;5085984;28;20953;-69
2021/12/15 05:34:40;;;;;;;53.90;28.43;;;6.10;99.80;;;4.63;100.00;99399.16;5083721;28;21024;-69
2021/12/15 05:37:08;;;;;;;61.57;28.77;;;6.10;99.90;;;4.45;100.00;99402.53;5087132;28;20488;-70
2021/12/15 05:39:36;;;;;;;49.20;25.80;;;6.00;99.90;;;4.68;98.93;99405.75;5090407;28;20793;-71
2021/12/15 05:42:05;;;;;;;50.50;25.20;;;6.10;99.90;;;4.48;99.28;99407.63;5090174;28;20452;-72
2021/12/15 05:44:33;;;;;;;43.20;23.20;;;6.00;99.30;;;4.48;100.00;99404.97;5087466;28;20462;-71
2021/12/15 05:47:02;;;;;;;54.00;23.90;;;5.90;99.90;;;4.70;100.00;99405.63;5084648;28;20468;-72
2021/12/15 05:49:30;;;;;;;48.27;23.53;;;6.10;99.90;;;4.40;100.00;99415.50;5092285;28;20961;-72
2021/12/15 05:51:59;;;;;;;53.43;23.87;;;5.90;99.90;;;4.36;100.00;99400.75;5090539;28;20487;-75
2021/12/15 05:54:28;;;;;;;63.83;25.50;;;5.80;99.90;;;4.58;100.00;99418.34;5092157;28;20460;-74
2021/12/15 05:56:56;;;;;;;58.10;25.03;;;5.80;99.90;;;4.38;100.00;99417.50;5092604;28;20479;-74
2021/12/15 05:59:24;;;;;;;55.67;25.03;;;5.80;99.90;;;4.70;99.81;99419.00;5092092;28;20448;-74
2021/12/15 06:01:51;;;;;;;58.57;23.57;;;6.00;99.90;;;4.67;99.56;99417.47;5089542;28;22140;-75
2021/12/15 06:04:18;;;;;;;58.90;24.90;;;6.10;99.90;;;4.58;99.73;99417.47;5090546;28;20475;-75
2021/12/15 06:06:46;;;;;;;66.53;25.13;;;6.10;99.90;;;4.40;99.57;99407.50;5092725;28;20444;-72
2021/12/15 06:09:14;;;;;;;53.67;24.80;;;6.00;99.80;;;4.49;100.00;99413.81;5091063;28;20467;-73
2021/12/15 06:11:43;;;;;;;67.43;24.47;;;5.90;99.90;;;4.54;99.58;99422.25;5089369;28;20452;-74
2021/12/15 06:14:10;;;;;;;70.57;25.47;;;6.00;99.90;;;4.38;100.00;99433.56;5095514;28;21025;-79
2021/12/15 06:16:38;;;;;;;72.03;26.37;;;5.90;99.90;;;4.14;100.00;99416.06;5096456;28;20459;-79
2021/12/15 06:19:05;;;;;;;66.23;24.87;;;5.80;99.90;;;4.18;100.00;99438.03;5097058;28;20859;-77
2021/12/15 06:21:33;;;;;;;76.03;27.50;;;5.70;99.90;;;4.09;100.00;99426.34;5092800;28;20818;-72
2021/12/15 06:24:01;;;;;;;71.63;25.80;;;5.60;99.90;;;4.24;100.00;99432.13;5090132;28;21057;-72
2021/12/15 06:26:30;;;;;;;60.13;24.47;;;5.60;99.90;;;4.22;100.00;99429.59;5090361;28;20456;-71
2021/12/15 06:28:57;;;;;;;69.53;25.30;;;5.60;99.90;;;4.29;100.00;99439.72;5083885;28;20818;-72
2021/12/15 06:31:24;;;;;;;69.93;25.80;;;5.70;99.90;;;4.95;99.95;99435.47;5088505;28;20455;-72
2021/12/15 06:33:52;;;;;;;58.13;25.80;;;6.00;99.90;;;4.88;98.46;99443.25;5089193;28;20500;-72
2021/12/15 06:36:20;;;;;;;53.33;24.40;;;6.10;99.90;;;4.62;98.78;99440.28;5088975;28;20456;-72
2021/12/15 06:38:51;;;;;;;56.30;25.17;;;6.10;98.90;;;4.61;99.41;99438.59;5085680;28;20464;-72
2021/12/15 06:41:18;;;;;;;62.07;26.87;;;6.00;99.90;;;4.47;100.00;99443.38;5089077;28;20564;-72
2021/12/15 06:43:52;;;;;;;60.43;25.07;;;5.90;99.90;;;4.34;100.00;99446.34;5088827;28;20467;-72
2021/12/15 06:46:43;;;;;;;65.47;25.33;;;5.80;99.90;;;4.51;100.00;99452.84;5089305;28;20451;-73
2021/12/15 07:00:14;;;;;;;56.20;23.13;;;6.00;99.90;;;4.73;98.51;99453.53;5062269;28;20467;-72
2021/12/15 07:02:43;;;;;;;54.90;24.13;;;6.10;99.60;;;4.45;99.26;99456.06;5087778;28;20467;-71
2021/12/15 07:05:12;;;;;;;53.33;23.30;;;5.90;99.90;;;4.33;100.00;99468.75;5103467;28;20453;-70
2021/12/15 07:07:43;;;;;;;55.30;22.73;;;5.80;99.90;;;4.44;100.00;99465.09;5088383;28;20452;-71
2021/12/15 07:10:13;;;;;;;54.77;25.10;;;5.80;99.90;;;4.28;100.00;99472.81;5081143;28;20448;-71
2021/12/15 07:12:41;;;;;;;57.27;24.13;;;5.80;99.90;;;4.70;99.61;99477.91;5082778;28;20459;-71
2021/12/15 07:15:12;;;;;;;55.17;25.63;;;6.00;99.90;;;4.81;98.76;99466.22;5083279;28;20470;-71
2021/12/15 07:17:40;;;;;;;50.77;22.50;;;6.10;99.90;;;4.53;100.00;99464.25;5080627;28;20513;-71
2021/12/15 07:22:52;;;;;;;54.50;23.83;;;5.90;99.90;;;4.22;100.00;99477.75;5088514;28;20552;-71
2021/12/15 07:25:21;;;;;;;57.47;24.97;;;5.80;99.90;;;4.62;100.00;99472.41;5085640;28;20470;-70
2021/12/15 07:27:48;;;;;;;57.93;23.50;;;5.90;99.90;;;4.74;99.06;99470.47;5085662;28;20448;-71
2021/12/15 07:30:17;;;;;;;54.97;22.90;;;6.00;99.90;;;4.76;98.64;99480.03;5088969;28;20464;-70
2021/12/15 07:32:45;;;;;;;49.70;23.47;;;6.10;99.90;;;4.75;98.40;99489.03;5088877;28;20460;-71
2021/12/15 07:35:14;;;;;;;50.40;22.53;;;6.10;98.80;;;4.89;98.04;99484.25;5084318;28;20453;-70
2021/12/15 07:37:41;;;;;;;51.30;22.50;;;6.20;98.60;;;4.69;98.00;99489.63;5082556;28;21106;-71
2021/12/15 07:40:19;;;;;;;44.13;21.03;;;6.10;98.10;;;4.69;98.64;99494.97;5087329;28;20449;-72
2021/12/15 07:42:56;;;;;;;49.93;20.83;;;6.10;98.90;;;4.62;99.22;99491.16;5089222;28;20470;-71
2021/12/15 07:45:28;;;;;;;62.87;23.40;;;6.00;99.40;;;4.49;99.43;99496.78;5087383;28;20492;-71
2021/12/15 07:47:59;;;;;;;48.60;23.80;;;6.00;99.50;;;4.59;99.53;99505.69;5091653;28;20456;-71
2021/12/15 07:50:29;;;;;;;52.63;22.13;;;6.00;99.90;;;4.72;99.10;99510.75;5086617;28;20487;-71
2021/12/15 07:52:56;;;;;;;54.47;24.10;;;6.00;99.90;;;4.59;99.21;99508.38;5102903;28;20452;-71
2021/12/15 07:55:25;;;;;;;55.23;24.43;;;6.00;99.10;;;4.51;98.97;99506.38;5084877;28;20456;-71
2021/12/15 07:57:53;;;;;;;53.00;21.57;;;6.00;99.90;;;4.52;99.77;99516.09;5086950;28;20452;-71
2021/12/15 08:00:22;;;;;;;57.70;23.73;;;6.00;99.60;;;4.52;99.25;99509.91;5084151;28;20928;-70
2021/12/15 08:02:51;;;;;;;49.33;22.07;;;6.00;99.70;;;4.44;99.89;99523.97;5084073;28;21338;-71
2021/12/15 08:05:19;;;;;;;46.13;21.57;;;5.90;99.90;;;4.49;100.00;99521.75;5087959;28;20982;-70
2021/12/15 08:07:46;;;;;;;66.03;23.37;;;5.90;99.90;;;4.53;100.00;99511.59;5079298;28;20463;-70
2021/12/15 08:10:13;;;;;;;63.07;24.80;;;5.90;99.90;;;4.74;99.55;99508.78;5085186;28;20516;-72
2021/12/15 08:12:43;;;;;;;56.00;23.40;;;6.00;99.90;;;4.65;99.28;99528.38;5095502;28;20456;-70
2021/12/15 08:15:12;;;;;;;52.47;22.67;;;6.00;99.90;;;4.78;99.17;99526.28;5084748;28;20517;-71
2021/12/15 08:17:42;;;;;;;54.00;22.30;;;6.00;99.90;;;4.67;98.70;99516.53;5088687;28;20460;-70
2021/12/15 08:20:13;;;;;;;53.50;23.17;;;6.10;98.70;;;4.64;99.36;99527.53;5087426;28;20521;-72
2021/12/15 08:22:42;;;;;;;50.50;21.47;;;6.00;99.70;;;4.73;98.82;99525.00;5087600;28;20462;-70
2021/12/15 08:25:13;;;;;;;53.03;23.60;;;6.10;98.60;;;4.76;98.43;99528.22;5080274;28;20525;-69
2021/12/15 08:27:40;;;;;;;55.90;22.70;;;6.10;98.70;;;4.80;97.95;99518.94;5082089;28;21262;-70
2021/12/15 08:30:11;;;;;;;55.97;23.10;;;6.20;98.90;;;4.81;97.37;99525.97;5086448;28;20522;-70
2021/12/15 08:32:40;;;;;;;56.30;24.23;;;6.20;97.70;;;4.54;98.62;99521.31;5088199;28;20455;-69
2021/12/15 08:35:10;;;;;;;49.80;22.07;;;6.10;97.90;;;4.93;97.34;99518.63;5089048;28;20481;-70
2021/12/15 08:37:37;;;;;;;50.83;23.00;;;6.20;98.00;;;5.01;96.49;99527.81;5082813;28;20551;-70
2021/12/15 08:40:06;;;;;;;53.13;24.17;;;6.30;96.70;;;5.03;96.56;99536.56;5083493;28;20464;-69
2021/12/15 08:42:34;;;;;;;46.13;21.90;;;6.40;96.10;;;4.98;96.79;99536.97;5084708;28;20475;-69
2021/12/15 08:45:01;;;;;;;53.27;24.57;;;6.40;96.20;;;4.99;97.05;99530.63;5082751;28;20479;-70
2021/12/15 08:47:28;;;;;;;52.17;23.50;;;6.40;96.10;;;4.92;97.79;99526.81;5101711;28;20444;-70
2021/12/15 08:49:56;;;;;;;50.17;22.03;;;6.40;96.80;;;4.93;97.51;99544.59;5086010;28;20460;-70
2021/12/15 08:52:25;;;;;;;53.43;23.37;;;6.40;96.00;;;4.86;97.56;99541.63;5087163;28;20448;-69
2021/12/15 08:54:52;;;;;;;51.30;21.63;;;6.30;96.40;;;4.84;98.67;99535.53;5080170;28;20457;-70
2021/12/15 08:57:19;;;;;;;52.23;23.13;;;6.20;97.70;;;4.92;97.22;99537.53;5084274;28;20987;-69
2021/12/15 08:59:46;;;;;;;47.73;22.83;;;6.30;96.30;;;4.97;96.65;99544.16;5084004;28;20513;-70
2021/12/15 09:02:14;;;;;;;58.07;25.37;;;6.40;95.90;;;5.05;97.53;99535.41;5083885;28;20489;-69
2021/12/15 09:04:41;;;;;;;50.60;23.20;;;6.40;97.30;;;5.55;94.86;99532.63;5087594;28;20490;-70
2021/12/15 09:07:08;;;;;;;51.47;23.60;;;6.60;95.90;;;5.30;95.42;99538.47;5088640;28;20471;-71
2021/12/15 09:09:37;;;;;;;47.33;22.50;;;6.70;94.60;;;5.68;94.18;99539.34;5085393;28;21017;-70
2021/12/15 09:12:05;;;;;;;45.33;24.43;;;6.80;94.30;;;5.76;93.03;99546.69;5083778;28;20455;-69
2021/12/15 09:14:32;;;;;;;47.80;22.27;;;7.00;93.00;;;5.52;94.36;99533.75;5083761;28;20819;-70
2021/12/15 09:17:04;;;;;;;56.63;23.47;;;7.00;92.90;;;5.46;94.05;99545.94;5082119;28;20459;-70
2021/12/15 09:19:31;;;;;;;47.37;22.30;;;6.90;92.50;;;5.17;94.58;99485.19;5086785;28;20469;-70
2021/12/15 09:21:59;;;;;;;42.30;21.63;;;6.90;93.30;;;5.67;93.19;99543.03;5089312;28;20452;-71
2021/12/15 09:24:26;;;;;;;50.53;22.00;;;6.90;93.10;;;5.60;94.13;99536.56;5092801;28;20483;-70
2021/12/15 09:26:55;;;;;;;66.90;24.50;;;6.90;93.00;;;5.86;92.62;99537.75;5087246;28;20452;-71
2021/12/15 09:29:23;;;;;;;54.80;24.17;;;7.00;93.00;;;5.77;92.61;99540.34;5084444;28;20452;-71
2021/12/15 09:31:53;;;;;;;53.47;23.73;;;7.10;91.90;;;5.82;91.52;99538.03;5082477;28;20464;-70
2021/12/15 09:34:21;;;;;;;48.20;23.10;;;7.20;91.20;;;5.56;93.67;99543.22;5080196;28;20567;-71
2021/12/15 09:36:50;;;;;;;48.27;23.90;;;7.00;92.20;;;5.97;92.40;99542.94;5098073;28;20688;-70
2021/12/15 09:39:21;;;;;;;46.60;22.60;;;7.20;92.40;;;5.74;92.60;99534.41;5089612;28;20443;-71
2021/12/15 09:41:51;;;;;;;50.83;26.65;;;7.20;91.80;;;5.99;91.49;99546.31;5084740;28;20819;-72
2021/12/15 09:44:23;;;;;;;47.77;23.63;;;7.20;91.50;;;6.04;91.05;99533.31;5082467;28;20221;-72
2021/12/15 09:47:13;;;;;;;42.60;23.47;;;7.30;90.90;;;6.00;91.19;99541.78;5084948;28;20451;-71
2021/12/15 10:03:55;;;;;;;44.10;21.90;;;7.30;91.50;;;6.33;89.94;99547.59;5027702;28;20497;-70
2021/12/15 10:06:30;;;;;;;38.67;21.27;;;7.50;90.70;;;6.47;89.63;99543.53;5026344;28;20458;-71
2021/12/15 10:12:06;;;;;;;43.23;19.63;;;7.60;90.00;;;6.79;92.22;99531.41;5098182;28;20474;-71
2021/12/15 10:17:31;;;;;;;44.47;22.67;;;8.20;91.50;;;6.59;89.14;99530.72;5089492;28;20464;-71
2021/12/15 10:20:02;;;;;;;47.03;22.60;;;7.90;89.10;;;6.93;88.95;99524.66;5097847;28;20547;-70
2021/12/15 10:22:38;;;;;;;38.87;21.67;;;8.00;90.50;;;7.33;87.71;99509.84;5084509;28;20456;-71
2021/12/15 10:25:16;;;;;;;35.40;22.30;;;8.30;89.80;;;7.24;86.06;99510.81;5083439;28;20511;-71
2021/12/15 10:27:47;;;;;;;35.07;19.63;;;8.40;86.70;;;7.35;85.55;99498.94;5086252;28;20559;-69
2021/12/15 10:30:25;;;;;;;35.67;20.43;;;8.40;86.40;;;7.21;83.97;99513.81;5085066;28;20456;-69
2021/12/15 10:33:00;;;;;;;39.97;21.30;;;8.40;84.30;;;7.19;83.82;99502.34;5088094;28;20513;-70
2021/12/15 10:35:31;;;;;;;39.33;21.07;;;8.40;83.70;;;7.19;83.89;99496.97;5085551;28;20486;-71
2021/12/15 10:38:27;;;;;;;37.63;20.13;;;8.40;83.90;;;7.02;83.57;99504.09;5078811;28;20460;-71
2021/12/15 10:41:01;;;;;;;38.10;21.40;;;8.30;83.10;;;6.80;85.69;99506.25;5070720;28;20456;-71
2021/12/15 10:43:34;;;;;;;36.83;21.23;;;8.20;84.00;;;6.85;86.12;99503.09;5084376;28;20449;-72
2021/12/15 10:46:05;;;;;;;41.03;21.07;;;8.20;84.60;;;6.90;85.12;99506.16;5081231;28;21183;-72
2021/12/15 10:48:45;;;;;;;36.40;19.70;;;8.20;84.60;;;6.87;85.08;99501.09;5090452;28;20432;-70
2021/12/15 10:51:40;;;;;;;40.73;19.53;;;8.20;83.90;;;6.87;84.95;99495.72;5104041;28;20848;-72
2021/12/15 10:54:12;;;;;;;36.70;20.03;;;8.20;83.80;;;6.75;84.99;99503.19;5077583;28;20456;-71
2021/12/15 10:56:43;;;;;;;37.77;20.13;;;8.10;84.10;;;7.05;84.40;99491.19;5086246;28;20471;-72
2021/12/15 10:59:13;;;;;;;37.70;20.00;;;8.20;84.30;;;7.42;82.84;99499.97;5100883;28;20445;-71
2021/12/15 11:02:00;;;;;;;33.70;19.33;;;8.40;83.60;;;7.37;82.30;99495.09;5077645;28;20959;-70
2021/12/15 11:04:41;;;;;;;32.10;19.50;;;8.50;83.00;;;6.98;83.06;99494.66;5102776;28;20796;-70
2021/12/15 11:07:23;;;;;;;35.13;20.90;;;8.30;82.60;;;7.27;82.64;99493.50;5082169;28;20531;-71
2021/12/15 11:09:59;;;;;;;33.70;20.37;;;8.50;82.80;;;7.02;84.78;99498.72;5103096;27;20202;-71
2021/12/15 11:12:32;;;;;;;44.30;21.47;;;8.40;83.40;;;7.06;84.42;99492.00;5087785;28;20464;-72
2021/12/15 11:15:06;;;;;;;38.03;21.53;;;8.50;83.50;;;7.37;83.84;99497.78;5085870;28;20456;-71
2021/12/15 11:17:36;;;;;;;35.53;20.47;;;8.50;83.50;;;7.00;83.62;99498.84;5081419;28;20444;-71
2021/12/15 11:20:13;;;;;;;36.77;19.07;;;8.40;83.00;;;7.34;83.56;99499.94;5083984;28;20459;-72
2021/12/15 11:22:51;;;;;;;57.40;36.40;;;8.50;83.40;;;7.01;85.51;99492.47;5088953;28;20459;-72
2021/12/15 11:25:28;;;;;;;39.23;20.70;;;8.30;84.40;;;7.04;85.33;99481.41;5083980;28;20566;-72
2021/12/15 11:28:02;;;;;;;36.90;18.60;;;8.30;84.60;;;7.00;84.97;99485.41;5084257;28;22629;-71
2021/12/15 11:30:36;;;;;;;33.07;20.20;;;8.40;83.80;;;6.72;86.07;99488.19;5084050;28;20470;-72